Time;durP1;ratioP1;P1;durP2;ratioP2;P2;SDS_P1;SDS_P2;PMS_P1;PMS_P2;Temp;Humidity;BMP_temperature;BMP_pressure;BME280_temperature;BME280_humidity;BME280_pressure;Samples;Min_cycle;Max_cycle;Signal;HPM_P1;HPM_P2
2022/08/28 00:02:04;;;;;;;5.65;2.80;;;21.90;51.80;;;;;;5016639;28;20060;-50
2022/08/28 00:04:32;;;;;;;4.85;2.20;;;21.90;51.80;;;;;;5019858;28;20490;-50
2022/08/28 00:06:59;;;;;;;5.00;2.53;;;21.90;51.70;;;;;;5019260;28;20045;-49
2022/08/28 00:09:26;;;;;;;3.83;2.33;;;21.90;51.60;;;;;;5018994;28;20061;-51
2022/08/28 00:11:54;;;;;;;5.18;2.40;;;21.90;51.40;;;;;;5017070;28;20062;-54
2022/08/28 00:14:23;;;;;;;5.05;2.30;;;21.90;51.20;;;;;;5017677;28;20060;-48
2022/08/28 00:16:51;;;;;;;5.95;2.20;;;21.90;51.10;;;;;;5017287;28;20529;-54
2022/08/28 00:19:21;;;;;;;5.82;2.67;;;21.90;51.10;;;;;;5017486;28;20058;-51
2022/08/28 00:21:48;;;;;;;5.93;2.33;;;21.90;51.10;;;;;;5016118;28;20060;-51
2022/08/28 00:24:17;;;;;;;6.10;2.60;;;21.80;51.00;;;;;;5019483;28;20049;-50
2022/08/28 00:29:30;;;;;;;6.32;2.90;;;21.80;51.00;;;;;;5010863;28;20402;-48
2022/08/28 00:31:58;;;;;;;6.57;3.25;;;21.80;51.40;;;;;;5011078;28;20627;-49
2022/08/28 00:34:28;;;;;;;6.97;2.85;;;21.80;51.60;;;;;;5018179;28;20053;-52
2022/08/28 00:36:55;;;;;;;5.43;2.38;;;21.80;51.30;;;;;;5021530;28;20068;-50
2022/08/28 00:39:22;;;;;;;4.50;2.45;;;21.80;51.30;;;;;;5016476;28;20069;-49
2022/08/28 00:41:51;;;;;;;5.40;2.25;;;21.80;51.60;;;;;;5014433;28;20053;-53
2022/08/28 00:44:21;;;;;;;4.07;1.92;;;21.80;51.70;;;;;;5017763;28;20053;-57
2022/08/28 00:46:50;;;;;;;3.97;1.95;;;21.70;52.20;;;;;;5017222;28;20057;-53
2022/08/28 00:49:21;;;;;;;5.95;2.20;;;21.80;51.90;;;;;;5017419;28;20072;-51
2022/08/28 00:52:11;;;;;;;4.68;2.30;;;21.80;51.80;;;;;;5016223;28;20065;-48
2022/08/28 00:54:44;;;;;;;6.97;2.80;;;21.80;51.70;;;;;;5020973;28;20057;-45
2022/08/28 00:57:14;;;;;;;6.65;2.70;;;21.80;51.60;;;;;;5018504;28;20041;-47
2022/08/28 00:59:42;;;;;;;5.53;2.67;;;21.80;51.50;;;;;;5015647;28;20057;-47
2022/08/28 01:02:10;;;;;;;5.05;2.15;;;21.80;51.50;;;;;;5008395;28;20551;-47
2022/08/28 01:04:38;;;;;;;4.53;2.42;;;21.80;51.50;;;;;;5021953;28;20085;-48
2022/08/28 01:07:11;;;;;;;5.63;2.22;;;21.80;51.60;;;;;;5023557;28;20057;-51
2022/08/28 01:09:44;;;;;;;4.20;1.90;;;21.80;51.50;;;;;;5015987;28;20382;-47
2022/08/28 01:12:20;;;;;;;5.38;2.05;;;21.80;51.50;;;;;;5020742;28;20061;-49
2022/08/28 01:14:50;;;;;;;4.05;1.98;;;21.80;51.70;;;;;;5019081;28;20053;-51
2022/08/28 01:17:20;;;;;;;7.75;2.33;;;21.80;51.90;;;;;;5021849;28;20061;-53
2022/08/28 01:19:55;;;;;;;6.05;2.00;;;21.80;51.90;;;;;;5014181;28;20053;-56
2022/08/28 01:22:29;;;;;;;5.57;2.53;;;21.80;52.00;;;;;;5022522;28;20057;-50
2022/08/28 01:25:02;;;;;;;2.53;1.60;;;21.80;51.70;;;;;;5019988;28;20041;-57
2022/08/28 01:27:29;;;;;;;3.75;1.70;;;21.80;51.70;;;;;;5019652;28;20057;-51
2022/08/28 01:29:56;;;;;;;3.30;2.00;;;21.80;51.70;;;;;;5015578;28;20049;-55
2022/08/28 01:32:31;;;;;;;3.75;2.00;;;21.80;51.90;;;;;;5023177;28;20054;-52
2022/08/28 01:34:59;;;;;;;3.78;2.00;;;21.80;52.00;;;;;;5017832;28;20064;-50
2022/08/28 01:37:26;;;;;;;4.45;1.77;;;21.80;52.10;;;;;;4989355;28;20058;-54
2022/08/28 01:39:54;;;;;;;5.25;2.55;;;21.80;52.20;;;;;;4979785;28;20054;-50
2022/08/28 01:42:24;;;;;;;4.28;2.88;;;21.70;52.20;;;;;;4988186;28;20402;-51
2022/08/28 01:44:53;;;;;;;7.50;3.38;;;21.80;52.20;;;;;;4993855;28;20770;-54
2022/08/28 01:47:20;;;;;;;5.88;3.65;;;21.80;52.40;;;;;;4975860;28;20069;-57
2022/08/28 01:49:48;;;;;;;6.40;3.83;;;21.80;52.50;;;;;;4981769;28;20050;-54
2022/08/28 01:52:15;;;;;;;7.80;4.45;;;21.80;52.60;;;;;;4979831;28;20092;-50
2022/08/28 01:54:42;;;;;;;6.85;3.83;;;21.80;52.70;;;;;;4986196;28;20056;-51
2022/08/28 01:57:09;;;;;;;7.85;3.78;;;21.80;52.80;;;;;;4983281;28;20050;-54
2022/08/28 01:59:38;;;;;;;6.78;3.92;;;21.80;52.90;;;;;;4983756;28;20540;-50
2022/08/28 02:02:06;;;;;;;7.25;4.35;;;21.80;52.90;;;;;;4982339;28;20049;-52
2022/08/28 02:04:33;;;;;;;3.63;2.92;;;21.80;53.00;;;;;;4981398;28;20688;-48
2022/08/28 02:07:00;;;;;;;4.07;2.72;;;21.80;52.90;;;;;;4984351;28;20070;-51
2022/08/28 02:09:27;;;;;;;5.22;3.67;;;21.80;52.90;;;;;;4986484;28;20053;-55
2022/08/28 02:11:56;;;;;;;4.13;3.15;;;21.80;53.40;;;;;;4983661;28;20057;-46
2022/08/28 02:14:23;;;;;;;6.03;3.58;;;21.80;52.90;;;;;;4973944;28;20417;-55
2022/08/28 02:17:23;;;;;;;5.97;3.50;;;21.80;53.00;;;;;;4987769;28;20111;-53
2022/08/28 02:19:50;;;;;;;5.03;3.00;;;21.80;53.10;;;;;;4979037;28;20433;-57
2022/08/28 02:22:17;;;;;;;4.05;3.03;;;21.80;53.00;;;;;;4980304;28;20054;-51
2022/08/28 02:24:45;;;;;;;5.93;3.35;;;21.70;53.00;;;;;;4981635;28;20061;-50
2022/08/28 02:27:12;;;;;;;5.50;3.13;;;21.80;53.10;;;;;;4975963;28;20056;-57
2022/08/28 02:29:39;;;;;;;5.63;3.30;;;21.70;53.00;;;;;;4979898;28;20516;-52
2022/08/28 02:32:07;;;;;;;4.90;3.05;;;21.70;52.90;;;;;;4976635;28;20058;-54
2022/08/28 02:34:36;;;;;;;6.72;3.25;;;21.70;52.80;;;;;;4978272;28;20061;-55
2022/08/28 02:37:06;;;;;;;5.05;3.20;;;21.70;53.10;;;;;;4988641;28;20050;-57
2022/08/28 02:39:33;;;;;;;8.57;3.92;;;21.70;53.10;;;;;;4975730;28;20057;-55
2022/08/28 02:42:00;;;;;;;7.88;3.88;;;21.60;53.00;;;;;;4974121;28;20054;-52
2022/08/28 02:44:28;;;;;;;6.85;3.60;;;21.60;52.80;;;;;;4979904;28;20054;-53
2022/08/28 02:46:55;;;;;;;6.82;4.22;;;21.60;52.80;;;;;;4983545;28;20545;-52
2022/08/28 02:49:22;;;;;;;7.72;3.85;;;21.60;52.80;;;;;;4979204;28;20324;-48
2022/08/28 02:51:51;;;;;;;11.75;3.92;;;21.50;52.70;;;;;;4996354;28;20061;-53
2022/08/28 02:54:18;;;;;;;6.57;4.25;;;21.50;52.80;;;;;;4980945;28;20061;-48
2022/08/28 02:56:45;;;;;;;7.82;4.15;;;21.50;52.70;;;;;;4980786;28;21876;-53
2022/08/28 02:59:13;;;;;;;9.45;3.70;;;21.50;52.70;;;;;;4975526;28;20926;-49
2022/08/28 03:01:40;;;;;;;9.43;4.47;;;21.50;52.60;;;;;;4991335;28;20056;-47
2022/08/28 03:04:07;;;;;;;4.53;3.15;;;21.40;52.70;;;;;;4980460;28;20593;-48
2022/08/28 03:06:35;;;;;;;8.30;3.55;;;21.40;52.70;;;;;;4980577;28;20053;-53
2022/08/28 03:09:04;;;;;;;7.22;3.72;;;21.40;52.70;;;;;;4984867;28;20053;-50
2022/08/28 03:11:31;;;;;;;8.18;3.75;;;21.30;52.70;;;;;;4980938;28;20045;-53
2022/08/28 03:14:00;;;;;;;7.10;3.67;;;21.20;52.80;;;;;;4973743;28;20057;-52
2022/08/28 03:16:27;;;;;;;7.55;3.58;;;21.20;52.80;;;;;;4980686;28;20409;-56
2022/08/28 03:18:54;;;;;;;9.93;3.75;;;21.20;52.90;;;;;;4993465;28;20052;-49
2022/08/28 03:21:21;;;;;;;11.50;4.03;;;21.20;53.00;;;;;;4974291;28;20050;-52
2022/08/28 03:23:49;;;;;;;7.90;3.28;;;21.10;53.00;;;;;;4977105;28;20053;-57
2022/08/28 03:26:19;;;;;;;9.32;3.53;;;21.10;53.10;;;;;;4977802;28;20479;-54
2022/08/28 03:28:49;;;;;;;10.18;3.20;;;21.00;53.00;;;;;;4982695;28;20410;-50
2022/08/28 03:31:19;;;;;;;7.43;3.60;;;21.00;53.10;;;;;;4985848;28;20061;-51
2022/08/28 03:33:47;;;;;;;5.63;3.63;;;21.00;53.30;;;;;;4982432;28;20058;-54
2022/08/28 03:36:17;;;;;;;5.40;3.00;;;20.90;53.30;;;;;;4975223;28;20058;-55
2022/08/28 03:38:44;;;;;;;5.97;3.83;;;20.90;53.40;;;;;;4974118;28;20418;-51
2022/08/28 03:41:13;;;;;;;7.20;3.55;;;20.90;53.50;;;;;;4979613;28;20509;-52
2022/08/28 03:43:43;;;;;;;8.68;3.42;;;20.80;53.60;;;;;;4978017;28;20061;-53
2022/08/28 03:46:14;;;;;;;9.32;3.30;;;20.80;53.80;;;;;;4991164;28;20541;-50
2022/08/28 03:48:42;;;;;;;7.05;3.22;;;20.70;53.80;;;;;;4981772;28;20049;-51
2022/08/28 03:51:12;;;;;;;8.30;3.15;;;20.70;53.90;;;;;;4971952;28;20061;-52
2022/08/28 03:53:40;;;;;;;8.18;3.20;;;20.70;54.00;;;;;;4982176;28;20061;-56
2022/08/28 03:56:08;;;;;;;8.15;3.33;;;20.60;54.00;;;;;;4973782;28;20060;-54
2022/08/28 03:58:36;;;;;;;15.63;4.28;;;20.60;54.10;;;;;;4977481;28;20401;-53
2022/08/28 04:01:04;;;;;;;4.82;3.28;;;20.60;54.30;;;;;;4976791;28;20058;-54
2022/08/28 04:03:32;;;;;;;7.90;3.15;;;20.50;54.30;;;;;;4978593;28;20058;-56
2022/08/28 04:05:59;;;;;;;8.55;2.97;;;20.50;54.40;;;;;;4988993;28;20046;-49
2022/08/28 04:08:27;;;;;;;9.90;3.80;;;20.40;54.40;;;;;;4972402;28;20100;-54
2022/08/28 04:10:54;;;;;;;10.13;2.80;;;20.40;54.50;;;;;;4981220;28;21524;-46
2022/08/28 04:13:23;;;;;;;6.57;2.75;;;20.40;54.40;;;;;;4978105;28;20054;-57
2022/08/28 04:15:57;;;;;;;7.40;2.80;;;20.40;54.30;;;;;;4981856;28;20062;-49
2022/08/28 04:18:26;;;;;;;11.30;3.10;;;20.40;54.30;;;;;;5002745;28;20053;-47
2022/08/28 04:21:02;;;;;;;4.72;2.35;;;20.40;54.30;;;;;;5005320;28;20066;-49
2022/08/28 04:23:29;;;;;;;9.27;2.80;;;20.40;54.30;;;;;;5018889;28;20058;-51
2022/08/28 04:25:57;;;;;;;5.68;2.42;;;20.30;54.30;;;;;;5020115;28;20061;-49
2022/08/28 04:28:25;;;;;;;10.57;3.00;;;20.30;54.20;;;;;;5018281;28;20053;-51
2022/08/28 04:30:54;;;;;;;9.15;2.55;;;20.30;54.30;;;;;;5008209;28;20053;-56
2022/08/28 04:33:21;;;;;;;8.82;3.00;;;20.20;54.30;;;;;;5018861;28;21445;-47
2022/08/28 04:35:50;;;;;;;8.63;2.88;;;20.20;54.30;;;;;;5023389;28;20057;-47
2022/08/28 04:38:18;;;;;;;9.65;2.90;;;20.20;54.40;;;;;;5022202;28;20046;-54
2022/08/28 04:40:45;;;;;;;7.78;2.60;;;20.10;54.50;;;;;;5015581;28;20065;-54
2022/08/28 04:43:12;;;;;;;12.70;2.53;;;20.10;54.60;;;;;;5018613;28;20053;-53
2022/08/28 04:45:40;;;;;;;8.30;2.78;;;20.10;54.60;;;;;;5018108;28;20497;-50
2022/08/28 04:48:07;;;;;;;9.55;2.60;;;20.00;54.50;;;;;;5022508;28;20061;-47
2022/08/28 04:50:35;;;;;;;16.20;2.83;;;20.10;54.60;;;;;;5018558;28;20049;-49
2022/08/28 04:53:03;;;;;;;5.32;2.08;;;20.00;54.60;;;;;;5019604;28;20054;-50
2022/08/28 04:55:31;;;;;;;13.05;2.78;;;20.00;54.60;;;;;;5023070;28;20056;-51
2022/08/28 04:57:58;;;;;;;7.53;2.10;;;20.00;54.60;;;;;;5016829;28;20053;-51
2022/08/28 05:00:25;;;;;;;3.85;2.10;;;20.00;54.70;;;;;;5012353;28;20054;-52
2022/08/28 05:02:52;;;;;;;5.75;2.03;;;20.00;54.70;;;;;;5019813;28;20061;-49
2022/08/28 05:05:19;;;;;;;9.10;2.67;;;19.90;54.70;;;;;;5019437;28;20061;-50
2022/08/28 05:07:47;;;;;;;7.07;2.40;;;19.90;54.80;;;;;;5019029;28;20424;-54
2022/08/28 05:10:15;;;;;;;6.45;2.30;;;19.90;54.90;;;;;;5012975;28;20444;-47
2022/08/28 05:12:43;;;;;;;11.00;2.22;;;19.90;54.90;;;;;;5021705;28;20057;-52
2022/08/28 05:15:11;;;;;;;7.55;2.15;;;19.90;55.00;;;;;;5018817;28;20540;-50
2022/08/28 05:17:38;;;;;;;7.88;2.30;;;19.90;55.00;;;;;;5013024;28;20064;-54
2022/08/28 05:20:06;;;;;;;8.52;2.10;;;19.80;55.00;;;;;;5017704;28;20057;-49
2022/08/28 05:22:33;;;;;;;6.82;1.88;;;19.80;55.10;;;;;;5018389;28;20482;-46
2022/08/28 05:25:00;;;;;;;11.10;2.00;;;19.80;55.10;;;;;;5024085;28;20058;-50
2022/08/28 05:27:29;;;;;;;9.98;2.35;;;19.80;55.10;;;;;;5023686;28;20068;-51
2022/08/28 05:29:56;;;;;;;9.68;2.30;;;19.80;55.20;;;;;;5016012;28;20057;-52
2022/08/28 05:32:23;;;;;;;11.40;2.50;;;19.70;55.10;;;;;;5018138;28;20054;-50
2022/08/28 05:34:51;;;;;;;13.75;2.47;;;19.70;55.10;;;;;;5021299;28;20064;-47
2022/08/28 05:37:18;;;;;;;8.75;1.80;;;19.70;55.00;;;;;;5021548;28;20413;-53
2022/08/28 05:39:45;;;;;;;9.35;2.03;;;19.70;55.00;;;;;;5015212;28;20065;-50
2022/08/28 05:42:12;;;;;;;12.85;2.72;;;19.70;55.10;;;;;;5014582;28;20050;-55
2022/08/28 05:44:41;;;;;;;10.07;2.00;;;19.70;55.10;;;;;;5010648;28;20077;-50
2022/08/28 05:47:08;;;;;;;15.18;2.28;;;19.70;55.00;;;;;;5008587;28;20057;-50
2022/08/28 05:49:35;;;;;;;12.07;2.30;;;19.70;55.00;;;;;;5022845;28;20546;-48
2022/08/28 05:52:03;;;;;;;7.97;2.03;;;19.70;55.00;;;;;;5021183;28;20057;-49
2022/08/28 05:54:30;;;;;;;9.73;2.50;;;19.60;55.00;;;;;;5021365;28;20064;-50
2022/08/28 05:56:57;;;;;;;9.65;1.90;;;19.70;55.00;;;;;;5020386;28;20061;-49
2022/08/28 05:59:25;;;;;;;10.90;2.45;;;19.70;54.90;;;;;;5023043;28;20068;-48
2022/08/28 06:01:53;;;;;;;9.18;2.28;;;19.70;54.90;;;;;;5017790;28;20053;-56
2022/08/28 06:04:25;;;;;;;8.75;2.22;;;19.70;54.90;;;;;;5024069;28;20053;-47
2022/08/28 06:06:53;;;;;;;6.53;2.00;;;19.70;54.80;;;;;;5023956;28;20058;-53
2022/08/28 06:09:22;;;;;;;14.43;3.17;;;19.70;54.60;;;;;;5023749;28;20520;-46
2022/08/28 06:11:49;;;;;;;9.65;2.30;;;19.70;54.60;;;;;;5018318;28;20120;-45
2022/08/28 06:14:19;;;;;;;9.70;2.35;;;19.70;54.50;;;;;;5020822;28;20057;-55
2022/08/28 06:16:48;;;;;;;9.75;3.10;;;19.70;54.30;;;;;;5021140;28;20064;-47
2022/08/28 06:19:19;;;;;;;12.10;2.50;;;19.70;54.30;;;;;;5023765;28;21230;-47
2022/08/28 06:21:47;;;;;;;13.93;2.83;;;19.70;54.20;;;;;;5016691;28;20053;-51
2022/08/28 06:24:14;;;;;;;11.38;2.95;;;19.70;54.20;;;;;;5019141;28;20053;-50
2022/08/28 06:26:41;;;;;;;7.63;2.58;;;19.70;54.20;;;;;;5020062;28;20054;-50
2022/08/28 06:29:10;;;;;;;11.23;3.47;;;19.70;54.20;;;;;;5022178;28;20521;-48
2022/08/28 06:31:38;;;;;;;10.82;2.80;;;19.70;54.20;;;;;;5018756;28;20049;-50
2022/08/28 06:34:06;;;;;;;8.73;2.40;;;19.80;54.10;;;;;;5020005;28;20391;-48
2022/08/28 06:36:38;;;;;;;12.60;3.22;;;19.70;54.10;;;;;;5023068;28;20053;-52
2022/08/28 06:39:06;;;;;;;9.07;2.80;;;19.80;54.10;;;;;;5022395;28;21133;-50
2022/08/28 06:41:35;;;;;;;15.82;3.33;;;19.80;53.80;;;;;;5018677;28;20405;-47
2022/08/28 06:44:03;;;;;;;9.90;3.15;;;19.80;53.90;;;;;;5020644;28;20416;-48
2022/08/28 06:46:32;;;;;;;14.75;3.05;;;19.80;53.70;;;;;;5020644;28;20049;-50
2022/08/28 06:48:59;;;;;;;12.10;3.45;;;19.80;53.60;;;;;;5017432;28;20502;-49
2022/08/28 06:51:26;;;;;;;12.98;2.92;;;19.90;53.60;;;;;;5018494;28;20383;-51
2022/08/28 06:53:56;;;;;;;11.32;3.45;;;19.90;53.50;;;;;;5017137;28;20057;-51
2022/08/28 06:56:24;;;;;;;11.93;3.25;;;19.90;53.10;;;;;;5023169;28;20501;-46
2022/08/28 06:58:52;;;;;;;18.15;5.15;;;19.90;52.90;;;;;;5017005;28;20526;-51
2022/08/28 07:01:22;;;;;;;13.15;3.58;;;19.90;52.80;;;;;;5014933;28;20065;-45
2022/08/28 07:03:51;;;;;;;10.57;3.38;;;19.90;52.60;;;;;;5022889;28;20058;-48
2022/08/28 07:06:20;;;;;;;13.77;2.72;;;19.90;52.70;;;;;;5022532;28;21069;-52
2022/08/28 07:08:47;;;;;;;14.52;3.65;;;20.00;53.00;;;;;;5021781;28;20410;-53
2022/08/28 07:11:20;;;;;;;12.88;3.42;;;20.00;52.80;;;;;;5016072;28;20049;-53
2022/08/28 07:13:49;;;;;;;14.23;3.70;;;20.00;52.70;;;;;;5018492;28;20049;-50
2022/08/28 07:16:18;;;;;;;13.07;3.30;;;20.00;52.70;;;;;;5021970;28;20057;-51
2022/08/28 07:18:46;;;;;;;7.82;2.75;;;20.00;52.50;;;;;;5022405;28;20513;-50
2022/08/28 07:21:13;;;;;;;10.27;3.08;;;20.10;52.90;;;;;;5015299;28;20057;-53
2022/08/28 07:23:42;;;;;;;8.13;2.97;;;20.10;52.90;;;;;;5022291;28;20049;-49
2022/08/28 07:26:12;;;;;;;14.93;3.38;;;20.20;53.10;;;;;;5021268;28;20068;-52
2022/08/28 07:28:41;;;;;;;10.57;3.55;;;20.20;52.50;;;;;;5020381;28;20057;-54
2022/08/28 07:31:12;;;;;;;9.77;3.78;;;20.40;52.80;;;;;;5015686;28;20072;-47
2022/08/28 07:33:40;;;;;;;7.20;3.10;;;20.40;52.70;;;;;;5019347;28;20053;-50
2022/08/28 07:36:08;;;;;;;13.52;3.97;;;20.50;52.50;;;;;;5021842;28;20064;-54
2022/08/28 07:38:36;;;;;;;18.35;3.60;;;20.50;51.70;;;;;;5022387;28;20990;-48
2022/08/28 07:41:03;;;;;;;10.48;3.30;;;20.60;51.20;;;;;;5015439;28;20497;-50
2022/08/28 07:46:17;;;;;;;21.75;4.13;;;20.60;51.00;;;;;;5025285;28;20065;-50
2022/08/28 07:48:46;;;;;;;10.27;3.33;;;20.60;51.10;;;;;;5021462;28;20060;-52
2022/08/28 07:51:13;;;;;;;9.50;3.40;;;20.60;51.40;;;;;;5018008;28;20057;-52
2022/08/28 07:53:40;;;;;;;12.45;3.65;;;20.70;51.40;;;;;;5019168;28;20408;-47
2022/08/28 07:56:08;;;;;;;13.23;3.47;;;20.70;51.30;;;;;;5022333;28;20079;-51
2022/08/28 07:58:35;;;;;;;9.82;3.00;;;20.70;51.30;;;;;;5019670;28;20053;-53
2022/08/28 08:01:02;;;;;;;10.77;3.97;;;20.80;51.40;;;;;;5019098;28;20053;-45
2022/08/28 08:03:31;;;;;;;12.25;3.67;;;20.80;51.50;;;;;;5021267;28;20062;-46
2022/08/28 08:06:01;;;;;;;13.13;4.00;;;20.90;51.80;;;;;;5021429;28;20386;-46
2022/08/28 08:08:30;;;;;;;11.70;4.60;;;20.90;51.50;;;;;;5021264;28;20076;-48
2022/08/28 08:11:02;;;;;;;17.23;3.92;;;21.10;51.30;;;;;;5021926;28;20061;-54
2022/08/28 08:13:30;;;;;;;14.60;4.07;;;21.10;51.10;;;;;;5021868;28;20493;-46
2022/08/28 08:16:01;;;;;;;13.82;3.53;;;21.20;51.10;;;;;;5027384;28;20520;-55
2022/08/28 08:18:29;;;;;;;15.00;4.15;;;21.20;50.60;;;;;;5027836;28;20053;-51
2022/08/28 08:20:57;;;;;;;14.55;4.45;;;21.20;50.20;;;;;;5024209;28;20053;-48
2022/08/28 08:23:25;;;;;;;11.52;3.75;;;21.20;49.70;;;;;;5027825;28;20057;-46
2022/08/28 08:25:56;;;;;;;16.70;4.72;;;21.30;49.80;;;;;;5028107;28;20053;-50
2022/08/28 08:28:24;;;;;;;16.10;5.15;;;21.30;50.00;;;;;;5027741;28;20625;-50
2022/08/28 08:31:03;;;;;;;16.23;6.25;;;21.30;49.90;;;;;;5020407;28;20060;-44
2022/08/28 08:33:31;;;;;;;23.65;4.95;;;21.30;49.50;;;;;;5024854;28;20065;-46
2022/08/28 08:36:00;;;;;;;15.95;4.72;;;21.30;49.60;;;;;;5027970;28;20057;-48
2022/08/28 08:38:29;;;;;;;15.95;4.43;;;21.30;49.80;;;;;;5027816;28;20485;-48
2022/08/28 08:40:58;;;;;;;15.88;4.20;;;21.30;49.10;;;;;;5023384;28;20049;-53
2022/08/28 08:43:28;;;;;;;14.25;3.85;;;21.30;48.90;;;;;;5027972;28;20060;-45
2022/08/28 08:45:56;;;;;;;13.15;3.72;;;21.30;49.10;;;;;;5020113;28;20520;-54
2022/08/28 08:48:28;;;;;;;10.27;3.22;;;21.30;49.10;;;;;;5009645;28;20050;-52
2022/08/28 08:51:05;;;;;;;11.82;4.25;;;21.30;49.20;;;;;;5018613;28;20604;-48
2022/08/28 08:53:43;;;;;;;18.50;4.85;;;21.30;48.70;;;;;;5020654;28;20049;-44
2022/08/28 08:56:15;;;;;;;19.55;3.83;;;21.30;48.60;;;;;;5016598;28;20049;-48
2022/08/28 08:58:47;;;;;;;9.82;3.53;;;21.30;48.80;;;;;;5020590;28;20528;-50
2022/08/28 09:01:19;;;;;;;16.85;4.35;;;21.20;48.10;;;;;;5021326;28;20057;-47
2022/08/28 09:03:54;;;;;;;12.65;3.58;;;21.30;48.50;;;;;;5024196;28;20540;-46
2022/08/28 09:06:30;;;;;;;19.52;3.53;;;21.20;48.20;;;;;;5024649;28;20060;-48
2022/08/28 09:09:01;;;;;;;15.35;3.78;;;21.20;48.20;;;;;;5024953;28;20061;-52
2022/08/28 09:11:37;;;;;;;10.10;3.60;;;21.30;48.20;;;;;;5022825;28;20053;-48
2022/08/28 09:14:11;;;;;;;20.83;4.40;;;21.30;48.00;;;;;;5013943;28;20053;-55
2022/08/28 09:16:41;;;;;;;18.98;3.85;;;21.30;47.90;;;;;;5016001;28;20053;-45
2022/08/28 09:19:12;;;;;;;9.13;3.47;;;21.30;48.20;;;;;;5025278;28;20053;-50
2022/08/28 09:21:43;;;;;;;14.05;4.88;;;21.40;48.60;;;;;;5013207;28;20060;-47
2022/08/28 09:24:17;;;;;;;14.25;4.30;;;21.40;48.50;;;;;;5023517;28;20053;-49
2022/08/28 09:26:52;;;;;;;12.05;4.38;;;21.50;47.80;;;;;;5020538;28;20087;-48
2022/08/28 09:29:25;;;;;;;12.23;4.60;;;21.40;47.40;;;;;;5022894;28;20056;-49
2022/08/28 09:31:52;;;;;;;11.88;4.20;;;21.50;47.40;;;;;;5016842;28;20512;-45
2022/08/28 09:34:31;;;;;;;9.55;3.30;;;21.50;47.20;;;;;;5024260;28;20057;-48
2022/08/28 09:37:01;;;;;;;13.63;3.85;;;21.50;46.90;;;;;;5019208;28;20603;-51
2022/08/28 09:39:30;;;;;;;12.90;3.78;;;21.50;46.60;;;;;;5019264;28;20056;-47
2022/08/28 09:44:58;;;;;;;16.58;4.53;;;21.60;46.90;;;;;;5023804;28;20067;-50
2022/08/28 09:47:41;;;;;;;11.23;3.65;;;21.70;46.80;;;;;;5020218;28;20065;-47
2022/08/28 09:50:28;;;;;;;13.57;4.72;;;21.70;46.50;;;;;;5018022;28;20054;-45
2022/08/28 09:53:00;;;;;;;12.15;4.10;;;21.80;45.80;;;;;;5018253;28;20058;-48
2022/08/28 09:55:35;;;;;;;15.60;4.95;;;21.80;45.70;;;;;;5019847;28;20054;-47
2022/08/28 09:58:03;;;;;;;13.57;4.88;;;21.80;45.00;;;;;;5024017;28;20488;-47
2022/08/28 10:00:35;;;;;;;12.23;4.43;;;21.90;45.10;;;;;;5013764;28;20050;-51
2022/08/28 10:03:13;;;;;;;9.82;3.95;;;22.00;45.00;;;;;;5020729;28;20084;-49
2022/08/28 10:05:47;;;;;;;13.05;5.00;;;22.00;43.80;;;;;;5008196;28;20053;-47
2022/08/28 10:08:30;;;;;;;14.20;4.85;;;22.00;43.70;;;;;;5021352;28;20469;-48
2022/08/28 10:11:06;;;;;;;15.73;4.57;;;22.10;43.70;;;;;;5019084;28;20065;-45
2022/08/28 10:13:39;;;;;;;13.77;4.82;;;22.10;43.60;;;;;;5021326;28;21075;-51
2022/08/28 10:16:18;;;;;;;11.77;4.50;;;22.20;43.70;;;;;;5020617;28;20077;-48
2022/08/28 10:18:51;;;;;;;15.45;4.82;;;22.20;43.80;;;;;;5021355;28;20054;-51
2022/08/28 10:21:23;;;;;;;10.27;4.40;;;22.20;43.30;;;;;;5014478;28;20073;-49
2022/08/28 10:24:09;;;;;;;15.13;3.92;;;22.30;43.50;;;;;;5017395;28;20413;-46
2022/08/28 10:26:42;;;;;;;13.82;4.10;;;22.30;43.50;;;;;;5022173;28;20080;-53
2022/08/28 10:29:23;;;;;;;11.10;3.40;;;22.40;43.60;;;;;;5021193;28;20573;-49
2022/08/28 10:32:08;;;;;;;11.30;3.33;;;22.40;43.60;;;;;;5012089;28;20053;-49
2022/08/28 10:34:48;;;;;;;13.07;3.67;;;22.40;43.40;;;;;;5019430;28;20049;-46
2022/08/28 10:37:26;;;;;;;7.93;3.03;;;22.50;43.30;;;;;;5022881;28;20080;-51
2022/08/28 10:39:57;;;;;;;10.60;3.38;;;22.50;42.90;;;;;;5016056;28;20054;-49
2022/08/28 10:42:30;;;;;;;9.52;3.03;;;22.50;42.90;;;;;;5021964;28;20053;-52
2022/08/28 10:45:04;;;;;;;10.45;3.03;;;22.50;43.10;;;;;;5017402;28;20060;-53
2022/08/28 10:47:34;;;;;;;9.80;3.22;;;22.60;43.30;;;;;;5021048;28;20076;-43
2022/08/28 10:50:08;;;;;;;8.70;3.40;;;22.60;42.40;;;;;;5013768;28;20049;-49
2022/08/28 10:52:37;;;;;;;;;;;22.60;41.80;;;;;;5021205;28;20056;-48
2022/08/28 10:55:11;;;;;;;8.82;3.08;;;22.70;42.60;;;;;;5021493;28;19943;-49
2022/08/28 10:57:42;;;;;;;13.18;3.65;;;22.80;41.60;;;;;;5016578;28;20062;-47
2022/08/28 11:00:14;;;;;;;12.73;3.35;;;22.90;42.20;;;;;;5011657;28;20061;-48
2022/08/28 11:02:45;;;;;;;12.25;3.08;;;22.90;42.00;;;;;;5019291;28;20208;-47
2022/08/28 11:05:13;;;;;;;13.40;3.03;;;22.90;42.40;;;;;;5018255;28;20519;-45
2022/08/28 11:07:44;;;;;;;10.43;2.90;;;22.90;41.40;;;;;;5019415;28;20053;-45
2022/08/28 11:10:44;;;;;;;10.00;2.85;;;22.90;41.30;;;;;;5014963;28;20050;-46
2022/08/28 11:13:12;;;;;;;8.73;2.97;;;23.00;41.70;;;;;;5014358;28;20065;-49
2022/08/28 11:15:51;;;;;;;11.75;3.10;;;23.00;41.70;;;;;;5016695;28;20049;-46
2022/08/28 11:18:48;;;;;;;6.40;2.55;;;23.00;40.90;;;;;;5019067;28;20053;-45
2022/08/28 11:21:21;;;;;;;5.60;2.40;;;23.10;41.80;;;;;;5014596;28;20053;-49
2022/08/28 11:23:54;;;;;;;11.43;3.33;;;23.20;41.60;;;;;;5017367;28;20060;-46
2022/08/28 11:26:32;;;;;;;8.90;2.37;;;23.20;40.60;;;;;;5018388;28;20140;-47
2022/08/28 11:29:01;;;;;;;11.82;3.55;;;23.30;40.60;;;;;;5017653;28;20421;-48
2022/08/28 11:31:33;;;;;;;9.82;3.10;;;23.30;40.00;;;;;;5012585;28;20041;-49
2022/08/28 11:34:01;;;;;;;8.77;2.80;;;23.30;40.20;;;;;;5014180;28;20064;-47
2022/08/28 11:37:00;;;;;;;8.15;2.92;;;23.30;40.30;;;;;;5021964;28;20481;-49
2022/08/28 11:39:28;;;;;;;11.02;3.42;;;23.30;39.80;;;;;;5014139;28;20049;-48
2022/08/28 11:42:35;;;;;;;6.90;2.85;;;23.30;40.60;;;;;;5015860;28;20053;-50
2022/08/28 11:45:05;;;;;;;10.88;3.22;;;23.40;39.80;;;;;;4974546;28;20081;-45
2022/08/28 11:47:55;;;;;;;13.73;3.13;;;23.40;39.70;;;;;;4980567;28;20054;-44
2022/08/28 11:50:51;;;;;;;9.20;2.80;;;23.40;39.60;;;;;;5005382;28;20511;-47
2022/08/28 11:53:54;;;;;;;13.88;3.60;;;23.40;40.10;;;;;;5018726;28;20428;-46
2022/08/28 11:56:41;;;;;;;7.80;2.50;;;23.50;39.60;;;;;;5021436;28;20064;-51
2022/08/28 11:59:43;;;;;;;9.15;2.65;;;23.50;40.20;;;;;;5017351;28;20053;-50
2022/08/28 12:02:46;;;;;;;9.52;3.42;;;23.60;40.20;;;;;;5001069;28;20417;-46
2022/08/28 12:05:49;;;;;;;8.38;2.75;;;23.70;39.40;;;;;;5014176;28;20057;-51
2022/08/28 12:08:54;;;;;;;8.23;2.85;;;23.80;40.20;;;;;;5014206;28;20057;-48
2022/08/28 12:12:03;;;;;;;8.52;2.30;;;23.80;38.90;;;;;;5009693;28;20046;-49
2022/08/28 12:15:18;;;;;;;8.13;2.67;;;23.90;38.10;;;;;;5007939;28;20057;-48
2022/08/28 12:17:52;;;;;;;6.53;2.47;;;23.90;38.20;;;;;;5016416;28;20054;-55
2022/08/28 12:20:31;;;;;;;;;;;24.00;39.10;;;;;;5013167;28;20512;-46
2022/08/28 12:23:00;;;;;;;7.18;2.78;;;24.10;38.80;;;;;;5012091;28;19924;-49
2022/08/28 12:25:34;;;;;;;8.45;2.40;;;24.10;38.00;;;;;;5012336;28;20070;-50
2022/08/28 12:28:14;;;;;;;11.63;3.00;;;24.10;37.80;;;;;;5018529;28;20064;-46
2022/08/28 12:30:49;;;;;;;10.30;2.90;;;24.10;37.90;;;;;;5012020;28;20053;-46
2022/08/28 12:33:25;;;;;;;7.72;2.53;;;24.20;37.70;;;;;;5016978;28;20053;-45
2022/08/28 12:35:58;;;;;;;6.13;2.08;;;24.20;38.30;;;;;;5019117;28;20128;-50
2022/08/28 12:38:27;;;;;;;7.40;2.22;;;24.30;38.70;;;;;;5016067;28;20053;-56
2022/08/28 12:40:54;;;;;;;5.32;2.20;;;24.30;36.50;;;;;;5014285;28;20058;-45
2022/08/28 12:43:30;;;;;;;6.05;2.00;;;24.20;36.60;;;;;;5013445;28;20061;-47
2022/08/28 12:46:00;;;;;;;6.85;2.20;;;24.30;37.30;;;;;;5015933;28;20057;-46
2022/08/28 12:48:31;;;;;;;9.35;2.60;;;24.40;37.60;;;;;;5021050;28;20053;-45
2022/08/28 12:51:02;;;;;;;6.90;2.25;;;24.40;37.00;;;;;;5012835;28;20057;-46
2022/08/28 12:53:39;;;;;;;11.00;2.95;;;24.40;36.70;;;;;;5017535;28;20497;-49
2022/08/28 12:56:09;;;;;;;7.18;2.13;;;24.40;36.20;;;;;;5009872;28;20046;-46
2022/08/28 12:58:38;;;;;;;5.25;1.88;;;24.40;35.40;;;;;;5014978;28;20061;-50
2022/08/28 13:01:09;;;;;;;5.28;1.73;;;24.50;36.50;;;;;;5013124;28;20138;-45
2022/08/28 13:03:44;;;;;;;6.30;1.90;;;24.50;36.20;;;;;;5017760;28;20057;-46
2022/08/28 13:06:12;;;;;;;7.18;1.90;;;24.50;35.70;;;;;;5021080;28;20081;-52
2022/08/28 13:08:40;;;;;;;7.47;2.10;;;24.60;36.10;;;;;;5024386;28;20581;-50
2022/08/28 13:11:08;;;;;;;10.02;2.53;;;24.60;36.00;;;;;;5009284;28;20046;-48
2022/08/28 13:13:38;;;;;;;10.27;1.70;;;24.70;36.00;;;;;;5015839;28;20061;-49